Time;durP1;ratioP1;P1;durP2;ratioP2;P2;SDS_P1;SDS_P2;PMS_P1;PMS_P2;Temp;Humidity;BMP_temperature;BMP_pressure;BME280_temperature;BME280_humidity;BME280_pressure;Samples;Min_cycle;Max_cycle;Signal;HPM_P1;HPM_P2
2023/12/17 00:01:09;;;;;;;9.10;2.97;;;;;;;4.71;100.00;100394.16;2624862;28;20048;-95
2023/12/17 00:02:41;;;;;;;6.43;2.80;;;;;;;4.78;100.00;100393.47;2615874;28;20135;-92
2023/12/17 00:03:57;;;;;;;10.77;3.20;;;;;;;5.10;100.00;100384.78;2630010;28;20694;-93
2023/12/17 00:05:13;;;;;;;6.53;2.20;;;;;;;4.80;100.00;100393.53;2630149;28;20044;-93
2023/12/17 00:06:29;;;;;;;11.38;2.70;;;;;;;4.66;100.00;100394.03;2624305;28;20553;-93
2023/12/17 00:07:44;;;;;;;7.35;2.50;;;;;;;4.60;100.00;100395.56;2621591;28;20039;-94
2023/12/17 00:09:00;;;;;;;5.80;2.30;;;;;;;4.68;100.00;100403.56;2614154;28;20059;-92
2023/12/17 00:10:17;;;;;;;6.00;2.40;;;;;;;4.71;100.00;100396.75;2624512;28;20101;-93
2023/12/17 00:11:41;;;;;;;9.45;3.10;;;;;;;4.57;100.00;100390.31;2631193;28;20391;-93
2023/12/17 00:12:57;;;;;;;7.82;3.33;;;;;;;4.70;100.00;100397.59;2630301;28;20059;-94
2023/12/17 00:14:13;;;;;;;11.63;2.60;;;;;;;4.66;100.00;100399.22;2624141;28;20047;-93
2023/12/17 00:15:28;;;;;;;7.65;3.08;;;;;;;4.73;100.00;100401.97;2613365;28;20071;-92
2023/12/17 00:16:44;;;;;;;11.57;2.15;;;;;;;4.57;100.00;100396.34;2624744;28;20065;-93
2023/12/17 00:17:59;;;;;;;8.82;2.85;;;;;;;4.85;100.00;100401.44;2624353;28;20036;-94
2023/12/17 00:19:15;;;;;;;2.40;1.50;;;;;;;4.47;100.00;100402.13;2630868;28;20032;-93
2023/12/17 00:20:32;;;;;;;3.22;1.77;;;;;;;4.52;100.00;100409.19;2628449;28;20102;-93
2023/12/17 00:21:47;;;;;;;7.85;2.20;;;;;;;4.54;100.00;100404.06;2624703;28;20067;-94
2023/12/17 00:23:04;;;;;;;5.68;2.20;;;;;;;4.56;100.00;100404.13;2630470;28;20048;-94
2023/12/17 00:24:20;;;;;;;3.65;1.45;;;;;;;4.50;100.00;100399.63;2630856;28;20520;-94
2023/12/17 00:25:36;;;;;;;7.28;2.10;;;;;;;4.53;100.00;100405.75;2630830;28;20040;-93
2023/12/17 00:26:54;;;;;;;5.45;1.92;;;;;;;4.41;100.00;100409.72;2629111;28;20203;-93
2023/12/17 00:28:10;;;;;;;7.97;2.70;;;;;;;4.66;100.00;100406.09;2624983;28;20775;-94
2023/12/17 00:29:26;;;;;;;3.15;1.90;;;;;;;4.26;100.00;100402.38;2624246;28;20082;-93
2023/12/17 00:30:41;;;;;;;4.03;2.15;;;;;;;4.36;100.00;100401.81;2619788;28;20062;-94
2023/12/17 00:31:57;;;;;;;2.95;1.58;;;;;;;4.33;100.00;100394.84;2615082;28;20048;-94
2023/12/17 00:33:13;;;;;;;3.03;1.13;;;;;;;4.29;100.00;100392.13;2618809;28;20043;-94
2023/12/17 00:34:28;;;;;;;7.70;1.90;;;;;;;4.31;100.00;100393.91;2624729;28;20077;-93
2023/12/17 00:35:44;;;;;;;5.18;2.00;;;;;;;4.30;100.00;100384.34;2624781;28;20131;-93
2023/12/17 00:37:00;;;;;;;7.07;1.95;;;;;;;4.31;100.00;100386.13;2625101;28;20036;-93
2023/12/17 00:38:15;;;;;;;4.40;1.73;;;;;;;4.29;100.00;100382.59;2614429;28;20391;-93
2023/12/17 00:39:31;;;;;;;1.92;1.50;;;;;;;4.18;100.00;100381.41;2619285;28;20047;-94
2023/12/17 00:40:47;;;;;;;2.47;1.40;;;;;;;4.31;100.00;100383.53;2618682;28;20048;-94
2023/12/17 00:42:03;;;;;;;4.75;1.95;;;;;;;4.37;100.00;100382.81;2622619;28;20515;-93
2023/12/17 00:43:19;;;;;;;5.07;1.80;;;;;;;4.28;100.00;100387.75;2632564;28;20051;-92
2023/12/17 00:44:34;;;;;;;8.18;2.75;;;;;;;4.48;100.00;100388.34;2625791;28;20074;-95
2023/12/17 00:45:50;;;;;;;5.38;2.25;;;;;;;4.40;100.00;100393.31;2625420;28;20082;-93
2023/12/17 00:47:06;;;;;;;8.13;2.75;;;;;;;4.45;100.00;100393.41;2618949;28;20257;-95
2023/12/17 00:48:22;;;;;;;5.95;2.20;;;;;;;4.49;100.00;100397.88;2611756;28;20147;-94
2023/12/17 00:49:38;;;;;;;6.55;2.47;;;;;;;4.39;100.00;100396.72;2615041;28;20041;-94
2023/12/17 00:50:54;;;;;;;6.35;2.20;;;;;;;4.44;100.00;100396.84;2619064;28;20829;-94
2023/12/17 00:52:10;;;;;;;7.53;2.33;;;;;;;4.20;100.00;100405.69;2631252;28;20060;-93
2023/12/17 00:53:25;;;;;;;8.43;2.88;;;;;;;4.26;100.00;100395.47;2621334;28;20223;-95
2023/12/17 00:54:41;;;;;;;4.47;2.30;;;;;;;4.29;100.00;100399.91;2614061;28;20056;-94
2023/12/17 00:55:57;;;;;;;5.80;1.55;;;;;;;4.03;100.00;100393.06;2618708;28;20044;-94
2023/12/17 00:57:12;;;;;;;3.38;1.63;;;;;;;4.16;100.00;100396.03;2631517;28;20036;-93
2023/12/17 00:58:28;;;;;;;6.22;2.60;;;;;;;4.17;100.00;100401.28;2624641;28;20044;-94
2023/12/17 00:59:44;;;;;;;7.07;2.50;;;;;;;4.41;100.00;100395.06;2624759;28;20040;-94
2023/12/17 01:01:01;;;;;;;11.52;3.47;;;;;;;4.23;100.00;100396.25;2630662;28;20044;-94
2023/12/17 01:02:17;;;;;;;5.10;2.25;;;;;;;4.30;100.00;100393.88;2631184;28;20076;-94
2023/12/17 01:03:33;;;;;;;9.20;2.47;;;;;;;4.23;100.00;100392.81;2614779;28;20079;-93
2023/12/17 01:04:49;;;;;;;5.97;2.17;;;;;;;4.16;100.00;100399.53;2633003;28;20434;-94
2023/12/17 01:06:05;;;;;;;3.08;1.85;;;;;;;4.16;100.00;100399.53;2622227;28;20057;-94
2023/12/17 01:07:20;;;;;;;1.98;1.38;;;;;;;4.03;100.00;100400.84;2618617;28;20086;-94
2023/12/17 01:08:36;;;;;;;4.10;1.98;;;;;;;4.31;100.00;100404.25;2624963;28;20051;-93
2023/12/17 01:09:52;;;;;;;9.45;2.28;;;;;;;4.09;100.00;100395.88;2624770;28;20478;-93
2023/12/17 01:11:07;;;;;;;6.78;2.47;;;;;;;4.15;100.00;100407.25;2624070;28;20039;-93
2023/12/17 01:12:23;;;;;;;4.32;1.95;;;;;;;4.07;100.00;100402.72;2624819;28;20103;-93
2023/12/17 01:13:39;;;;;;;11.48;2.25;;;;;;;4.19;100.00;100406.50;2619566;28;20523;-93
2023/12/17 01:14:55;;;;;;;5.10;1.65;;;;;;;4.19;100.00;100406.50;2623429;28;20546;-93
2023/12/17 01:16:10;;;;;;;5.40;2.47;;;;;;;4.49;100.00;100413.44;2624623;28;20052;-93
2023/12/17 01:17:26;;;;;;;6.18;2.42;;;;;;;4.51;100.00;100411.75;2614483;28;20057;-94
2023/12/17 01:18:42;;;;;;;6.65;2.95;;;;;;;4.35;100.00;100407.84;2624929;28;20043;-93
2023/12/17 01:19:57;;;;;;;7.65;2.80;;;;;;;4.36;100.00;100402.72;2621438;28;20501;-94
2023/12/17 01:21:13;;;;;;;1.80;1.30;;;;;;;4.15;100.00;100400.38;2625336;28;20044;-93
2023/12/17 01:22:29;;;;;;;7.20;2.20;;;;;;;4.21;100.00;100394.47;2631533;28;20044;-93
2023/12/17 01:23:44;;;;;;;5.68;2.22;;;;;;;4.24;100.00;100400.63;2620820;28;20064;-94
2023/12/17 01:25:00;;;;;;;8.38;2.28;;;;;;;4.21;100.00;100387.56;2619329;28;20079;-93
2023/12/17 01:26:22;;;;;;;6.18;2.03;;;;;;;4.15;100.00;100394.28;2620849;28;20032;-93
2023/12/17 01:27:38;;;;;;;4.13;1.98;;;;;;;4.10;100.00;100395.03;2624476;28;20566;-94
2023/12/17 01:28:54;;;;;;;9.82;2.60;;;;;;;4.15;100.00;100396.88;2633158;28;20119;-93
2023/12/17 01:30:10;;;;;;;5.40;2.30;;;;;;;4.32;100.00;100389.59;2618789;28;20074;-93
2023/12/17 01:31:25;;;;;;;3.00;1.52;;;;;;;4.12;100.00;100384.72;2609281;28;20135;-93
2023/12/17 01:32:41;;;;;;;6.38;2.05;;;;;;;4.09;100.00;100384.59;2620133;28;20048;-94
2023/12/17 01:33:57;;;;;;;8.45;2.28;;;;;;;4.25;100.00;100380.75;2625983;28;20058;-93
2023/12/17 01:35:12;;;;;;;2.92;1.50;;;;;;;4.14;100.00;100384.75;2627088;28;20494;-93
2023/12/17 01:36:28;;;;;;;10.52;2.47;;;;;;;4.05;100.00;100393.13;2627144;28;20555;-93
2023/12/17 01:37:44;;;;;;;6.30;2.10;;;;;;;4.28;100.00;100386.03;2616112;28;20055;-93
2023/12/17 01:38:59;;;;;;;8.70;2.90;;;;;;;4.31;100.00;100388.72;2619954;28;20039;-92
2023/12/17 01:40:15;;;;;;;4.82;1.65;;;;;;;4.22;100.00;100385.88;2626364;28;20039;-93
2023/12/17 01:41:31;;;;;;;1.75;1.45;;;;;;;4.02;100.00;100388.72;2629936;28;20051;-94
2023/12/17 01:42:46;;;;;;;11.52;2.33;;;;;;;4.20;100.00;100385.81;2633330;28;20043;-94
2023/12/17 01:44:02;;;;;;;10.20;2.85;;;;;;;4.47;100.00;100394.34;2631773;28;20076;-94
2023/12/17 01:45:19;;;;;;;1.88;1.20;;;;;;;4.16;100.00;100393.44;2619018;28;20043;-94
2023/12/17 01:46:35;;;;;;;3.33;1.83;;;;;;;4.31;100.00;100396.50;2621135;28;20094;-93
2023/12/17 01:47:51;;;;;;;5.05;1.98;;;;;;;4.15;100.00;100396.88;2620474;28;20044;-94
2023/12/17 01:49:07;;;;;;;5.85;1.70;;;;;;;4.11;100.00;100388.13;2623543;28;20083;-94
2023/12/17 01:50:23;;;;;;;6.07;1.52;;;;;;;4.35;100.00;100393.16;2622170;28;21098;-93
2023/12/17 01:51:41;;;;;;;3.25;2.00;;;;;;;4.08;100.00;100394.13;2622671;28;20044;-94
2023/12/17 01:52:58;;;;;;;5.53;1.77;;;;;;;4.20;100.00;100395.31;2628807;28;20137;-94
2023/12/17 01:54:14;;;;;;;7.13;2.17;;;;;;;4.21;100.00;100397.94;2622446;28;20066;-94
2023/12/17 01:55:30;;;;;;;5.22;1.95;;;;;;;4.35;100.00;100393.16;2623792;28;20055;-94
2023/12/17 01:56:46;;;;;;;4.40;1.60;;;;;;;4.13;100.00;100394.25;2637174;28;20043;-95
2023/12/17 01:58:02;;;;;;;4.63;2.35;;;;;;;4.22;100.00;100397.09;2632997;28;20036;-93
2023/12/17 01:59:18;;;;;;;3.97;1.90;;;;;;;4.08;100.00;100399.31;2622219;28;20048;-93
2023/12/17 02:00:36;;;;;;;2.00;1.67;;;;;;;4.10;100.00;100388.97;2623889;28;20048;-94
2023/12/17 02:01:52;;;;;;;4.82;2.13;;;;;;;4.01;100.00;100384.38;2637585;28;20040;-93
2023/12/17 02:03:09;;;;;;;8.88;2.08;;;;;;;4.26;100.00;100389.41;2633338;28;20598;-93
2023/12/17 02:04:25;;;;;;;7.75;1.80;;;;;;;4.07;100.00;100370.72;2623629;28;20028;-94
2023/12/17 02:05:48;;;;;;;3.50;1.77;;;;;;;3.99;100.00;100365.31;2624285;28;20089;-93
2023/12/17 02:07:04;;;;;;;4.25;1.75;;;;;;;4.19;100.00;100367.59;2628232;28;20415;-94
2023/12/17 02:08:19;;;;;;;5.13;1.88;;;;;;;4.02;100.00;100367.13;2626007;28;20047;-92
2023/12/17 02:09:35;;;;;;;3.42;1.33;;;;;;;4.03;100.00;100364.56;2633072;28;20035;-93
2023/12/17 02:10:53;;;;;;;6.15;3.15;;;;;;;4.10;100.00;100358.75;2621924;28;20529;-92
2023/12/17 02:12:24;;;;;;;2.70;1.38;;;;;;;4.12;100.00;100363.09;2630577;28;20050;-93
2023/12/17 02:13:39;;;;;;;6.05;2.00;;;;;;;4.11;100.00;100357.00;2633727;28;20876;-94
2023/12/17 02:14:55;;;;;;;2.88;1.65;;;;;;;4.09;100.00;100361.28;2618151;28;20052;-93
2023/12/17 02:16:11;;;;;;;1.40;1.02;;;;;;;4.13;100.00;100347.59;2616271;28;20040;-94
2023/12/17 02:17:28;;;;;;;3.25;1.67;;;;;;;4.36;100.00;100353.44;2622147;28;20062;-93
2023/12/17 02:18:44;;;;;;;7.43;2.13;;;;;;;4.19;100.00;100352.06;2622286;28;20052;-93
2023/12/17 02:20:00;;;;;;;5.00;1.77;;;;;;;4.32;100.00;100348.97;2623965;28;20247;-93
2023/12/17 02:21:15;;;;;;;3.70;1.83;;;;;;;4.02;100.00;100344.66;2626255;28;20040;-92
2023/12/17 02:22:33;;;;;;;2.55;1.27;;;;;;;4.13;100.00;100349.28;2626752;28;20052;-93
2023/12/17 02:23:49;;;;;;;4.63;1.88;;;;;;;4.19;100.00;100347.75;2635665;28;20078;-94
2023/12/17 02:25:06;;;;;;;8.85;2.28;;;;;;;4.05;100.00;100349.97;2619684;28;20071;-94
2023/12/17 02:26:22;;;;;;;5.90;2.60;;;;;;;4.04;100.00;100349.91;2626058;28;20066;-93
2023/12/17 02:27:37;;;;;;;4.75;1.90;;;;;;;4.06;100.00;100343.06;2626853;28;20043;-92
2023/12/17 02:28:53;;;;;;;4.82;1.77;;;;;;;4.13;100.00;100347.59;2626418;28;20052;-93
2023/12/17 02:30:10;;;;;;;5.85;2.33;;;;;;;3.81;100.00;100347.50;2632906;28;20071;-93
2023/12/17 02:31:25;;;;;;;1.98;1.40;;;;;;;4.03;100.00;100355.94;2632767;28;20048;-92
2023/12/17 02:32:41;;;;;;;4.65;2.15;;;;;;;3.92;100.00;100363.41;2626657;28;20071;-93
2023/12/17 02:33:57;;;;;;;4.07;2.40;;;;;;;4.07;100.00;100358.66;2626689;28;20051;-93
2023/12/17 02:35:13;;;;;;;15.80;3.28;;;;;;;4.08;100.00;100364.72;2627487;28;20047;-92
2023/12/17 02:36:29;;;;;;;6.95;1.85;;;;;;;4.09;100.00;100357.00;2631781;28;20415;-92
2023/12/17 02:37:45;;;;;;;6.15;2.10;;;;;;;4.05;100.00;100349.97;2626145;28;20130;-93
2023/12/17 02:39:01;;;;;;;5.10;2.05;;;;;;;4.17;100.00;100354.63;2626091;28;20040;-93
2023/12/17 02:40:17;;;;;;;6.40;2.28;;;;;;;4.09;100.00;100353.50;2626366;28;20067;-93
2023/12/17 02:41:35;;;;;;;2.72;1.63;;;;;;;4.04;100.00;100352.50;2619975;28;20102;-93
2023/12/17 02:42:50;;;;;;;2.63;2.15;;;;;;;4.10;100.00;100345.78;2623786;28;20055;-93
2023/12/17 02:44:06;;;;;;;3.30;1.88;;;;;;;4.04;100.00;100347.31;2632948;28;20044;-92
2023/12/17 02:45:22;;;;;;;7.30;2.33;;;;;;;4.07;100.00;100355.19;2627593;28;20044;-93
2023/12/17 02:46:38;;;;;;;5.35;1.90;;;;;;;3.92;100.00;100356.47;2627101;28;20036;-92
2023/12/17 02:47:53;;;;;;;3.33;1.83;;;;;;;4.03;100.00;100356.78;2626983;28;20055;-93
2023/12/17 02:49:11;;;;;;;2.22;1.63;;;;;;;3.89;100.00;100352.91;2625986;28;20044;-93
2023/12/17 02:50:28;;;;;;;6.13;2.47;;;;;;;4.00;100.00;100348.94;2616462;28;20562;-93
2023/12/17 02:51:43;;;;;;;8.27;2.33;;;;;;;4.01;100.00;100353.28;2620078;28;20044;-92
2023/12/17 02:52:59;;;;;;;4.22;2.42;;;;;;;4.21;100.00;100355.59;2622974;28;20090;-93
2023/12/17 02:54:18;;;;;;;3.80;2.25;;;;;;;4.15;100.00;100355.41;2614851;28;20543;-94
2023/12/17 02:55:35;;;;;;;5.22;2.08;;;;;;;4.05;100.00;100362.03;2632073;28;20047;-92
2023/12/17 02:56:51;;;;;;;2.75;1.25;;;;;;;3.98;100.00;100357.47;2630100;28;20068;-93
2023/12/17 02:58:06;;;;;;;9.00;2.85;;;;;;;4.19;100.00;100358.13;2621945;28;20040;-93
2023/12/17 02:59:23;;;;;;;4.35;2.13;;;;;;;4.10;100.00;100363.94;2624009;28;20048;-93
2023/12/17 03:00:39;;;;;;;5.47;1.40;;;;;;;3.87;100.00;100359.75;2622312;28;20052;-92
2023/12/17 03:01:54;;;;;;;10.20;2.28;;;;;;;3.85;100.00;100351.06;2616260;28;20044;-92
2023/12/17 03:03:10;;;;;;;6.05;1.60;;;;;;;4.00;100.00;100354.13;2632800;28;20043;-94
2023/12/17 03:04:26;;;;;;;6.18;1.88;;;;;;;4.17;100.00;100356.31;2625981;28;20048;-94
2023/12/17 03:05:41;;;;;;;6.50;1.63;;;;;;;4.12;100.00;100353.63;2626590;28;20043;-93
2023/12/17 03:06:57;;;;;;;3.42;1.73;;;;;;;3.95;100.00;100350.53;2631890;28;20103;-93
2023/12/17 03:08:15;;;;;;;8.05;1.85;;;;;;;3.97;100.00;100354.03;2625296;28;20048;-93
2023/12/17 03:09:32;;;;;;;6.10;1.25;;;;;;;3.92;100.00;100353.88;2626357;28;20040;-94
2023/12/17 03:10:47;;;;;;;2.30;1.35;;;;;;;3.92;100.00;100347.84;2616728;28;20054;-93
2023/12/17 03:12:04;;;;;;;8.50;1.90;;;;;;;3.93;100.00;100347.88;2619821;28;20108;-93
2023/12/17 03:13:20;;;;;;;6.80;2.05;;;;;;;4.06;100.00;100350.81;2618135;28;20091;-93
2023/12/17 03:14:36;;;;;;;12.52;1.80;;;;;;;3.96;100.00;100347.09;2622373;28;20131;-93
2023/12/17 03:15:52;;;;;;;2.20;1.35;;;;;;;3.86;100.00;100340.75;2628821;28;20101;-93
2023/12/17 03:17:07;;;;;;;3.03;1.42;;;;;;;3.90;100.00;100340.00;2620419;28;20048;-93
2023/12/17 03:18:23;;;;;;;8.98;2.08;;;;;;;4.08;100.00;100341.38;2624006;28;20048;-93
2023/12/17 03:19:40;;;;;;;5.75;2.13;;;;;;;4.04;100.00;100340.41;2627829;28;20059;-93
2023/12/17 03:20:55;;;;;;;5.78;2.30;;;;;;;3.98;100.00;100341.94;2634187;28;20054;-93
2023/12/17 03:22:11;;;;;;;3.80;1.67;;;;;;;3.88;100.00;100331.31;2633803;28;20076;-93
2023/12/17 03:23:27;;;;;;;2.70;1.35;;;;;;;3.89;100.00;100332.19;2618734;28;20106;-94
2023/12/17 03:24:43;;;;;;;5.60;2.17;;;;;;;4.01;100.00;100326.50;2627389;28;20040;-93
2023/12/17 03:25:58;;;;;;;6.55;2.08;;;;;;;4.06;100.00;100325.81;2617348;28;20047;-93
2023/12/17 03:27:15;;;;;;;12.82;2.10;;;;;;;4.08;100.00;100329.31;2616982;28;20049;-94
2023/12/17 03:28:30;;;;;;;6.03;1.92;;;;;;;3.97;100.00;100328.13;2621044;28;20608;-93
2023/12/17 03:29:46;;;;;;;4.75;1.75;;;;;;;3.96;100.00;100335.00;2626553;28;20448;-93
2023/12/17 03:31:02;;;;;;;5.10;2.30;;;;;;;4.08;100.00;100331.91;2614361;28;20060;-92
2023/12/17 03:32:18;;;;;;;8.95;2.03;;;;;;;4.00;100.00;100328.19;2620681;28;20050;-94
2023/12/17 03:33:34;;;;;;;4.05;1.33;;;;;;;3.81;100.00;100327.66;2623033;28;20047;-94
2023/12/17 03:34:50;;;;;;;2.22;1.15;;;;;;;3.81;100.00;100325.06;2627033;28;20044;-94
2023/12/17 03:36:07;;;;;;;4.30;1.27;;;;;;;3.86;100.00;100326.91;2617427;28;20063;-94
2023/12/17 03:37:24;;;;;;;6.82;2.50;;;;;;;4.12;100.00;100314.72;2627285;28;20048;-94
2023/12/17 03:38:42;;;;;;;5.20;1.95;;;;;;;3.86;100.00;100322.63;2632462;28;20040;-95
2023/12/17 03:39:57;;;;;;;4.25;1.88;;;;;;;3.74;100.00;100315.34;2616142;28;20080;-94
2023/12/17 03:41:21;;;;;;;3.53;1.90;;;;;;;3.87;100.00;100319.19;2609438;28;20053;-94
2023/12/17 03:42:36;;;;;;;4.28;1.75;;;;;;;3.87;100.00;100311.44;2626648;28;20040;-93
2023/12/17 03:43:57;;;;;;;5.90;2.00;;;;;;;3.93;100.00;100318.50;2625975;28;20040;-94
2023/12/17 03:45:12;;;;;;;6.75;2.95;;;;;;;3.90;100.00;100318.38;2627994;28;20289;-94
2023/12/17 03:46:28;;;;;;;7.35;2.38;;;;;;;3.79;100.00;100311.19;2627194;28;20052;-94
2023/12/17 03:47:47;;;;;;;2.83;2.15;;;;;;;3.79;100.00;100311.19;2623608;28;20396;-94
2023/12/17 03:49:03;;;;;;;5.03;1.85;;;;;;;3.76;100.00;100312.81;2613379;28;20131;-94
2023/12/17 03:50:20;;;;;;;2.92;1.52;;;;;;;3.62;100.00;100312.38;2611394;28;20071;-93
2023/12/17 03:51:35;;;;;;;1.42;0.90;;;;;;;3.75;100.00;100317.09;2615862;28;20048;-91
2023/12/17 03:52:51;;;;;;;4.07;1.98;;;;;;;4.02;100.00;100315.28;2624899;28;20040;-95
2023/12/17 03:54:08;;;;;;;5.90;1.90;;;;;;;3.86;100.00;100314.84;2618362;28;20045;-92
2023/12/17 03:55:24;;;;;;;9.48;2.70;;;;;;;3.92;100.00;100319.34;2633588;28;20087;-95
2023/12/17 03:56:46;;;;;;;5.22;2.33;;;;;;;3.74;100.00;100320.53;2624207;28;20044;-93
2023/12/17 03:58:02;;;;;;;6.28;2.72;;;;;;;3.95;100.00;100316.84;2618729;28;20142;-93
2023/12/17 03:59:19;;;;;;;3.17;2.22;;;;;;;3.81;100.00;100325.06;2621903;28;20145;-95
2023/12/17 04:00:35;;;;;;;5.05;2.50;;;;;;;3.81;100.00;100319.88;2621330;28;20597;-94
2023/12/17 04:01:51;;;;;;;6.80;2.70;;;;;;;4.18;100.00;100326.97;2622483;28;20106;-93
2023/12/17 04:03:07;;;;;;;6.35;2.80;;;;;;;4.18;100.00;100326.97;2626141;28;20059;-93
2023/12/17 04:04:22;;;;;;;6.40;2.55;;;;;;;4.03;100.00;100319.66;2626595;28;20044;-94
2023/12/17 04:05:38;;;;;;;4.43;2.17;;;;;;;4.08;100.00;100324.13;2626119;28;20047;-94
2023/12/17 04:06:54;;;;;;;8.15;2.30;;;;;;;3.94;100.00;100323.72;2626202;28;20043;-94
2023/12/17 04:08:10;;;;;;;8.85;2.78;;;;;;;4.03;100.00;100325.69;2632645;28;20048;-93
2023/12/17 04:09:25;;;;;;;6.70;2.75;;;;;;;3.94;100.00;100323.72;2625723;28;20058;-94
2023/12/17 04:10:42;;;;;;;8.25;2.92;;;;;;;4.07;100.00;100332.75;2625996;28;20074;-93
2023/12/17 04:11:57;;;;;;;6.40;3.00;;;;;;;4.10;100.00;100329.34;2615507;28;20105;-93
2023/12/17 04:13:13;;;;;;;6.53;2.17;;;;;;;4.04;100.00;100331.75;2617579;28;20048;-94
2023/12/17 04:14:29;;;;;;;6.15;2.55;;;;;;;3.92;100.00;100332.28;2616048;28;20064;-94
2023/12/17 04:15:45;;;;;;;12.27;3.03;;;;;;;3.87;100.00;100331.25;2609666;28;20103;-93
2023/12/17 04:17:03;;;;;;;6.25;2.85;;;;;;;4.04;100.00;100329.19;2616035;28;20101;-93
2023/12/17 04:18:19;;;;;;;11.85;2.97;;;;;;;4.10;100.00;100332.81;2631612;28;20040;-93
2023/12/17 04:19:34;;;;;;;6.10;2.65;;;;;;;3.97;100.00;100335.88;2625583;28;20545;-94
2023/12/17 04:20:50;;;;;;;8.35;2.92;;;;;;;3.90;100.00;100333.94;2615717;28;20057;-94
2023/12/17 04:22:06;;;;;;;10.40;3.20;;;;;;;3.87;100.00;100331.25;2626151;28;20048;-93
2023/12/17 04:23:22;;;;;;;6.28;1.80;;;;;;;3.66;100.00;100324.63;2632457;28;20176;-94
2023/12/17 04:24:39;;;;;;;6.55;2.30;;;;;;;3.68;100.00;100325.53;2626124;28;20434;-93
2023/12/17 04:25:55;;;;;;;8.27;2.72;;;;;;;3.87;100.00;100324.38;2626486;28;20048;-94
2023/12/17 04:27:10;;;;;;;6.70;2.40;;;;;;;3.88;100.00;100325.25;2632687;28;20040;-93
2023/12/17 04:28:26;;;;;;;6.80;1.85;;;;;;;3.80;100.00;100328.50;2620570;28;20043;-92
2023/12/17 04:29:45;;;;;;;4.45;1.63;;;;;;;3.71;100.00;100322.16;2623230;28;20055;-93
2023/12/17 04:31:01;;;;;;;7.53;2.28;;;;;;;3.88;100.00;100325.25;2616799;28;20129;-92
2023/12/17 04:32:19;;;;;;;8.63;2.03;;;;;;;3.75;100.00;100317.09;2610662;28;20083;-95
2023/12/17 04:33:35;;;;;;;4.47;2.25;;;;;;;3.90;100.00;100316.69;2616241;28;20572;-95
2023/12/17 04:34:55;;;;;;;4.93;2.47;;;;;;;3.87;100.00;100308.84;2612291;28;20255;-94
2023/12/17 04:36:11;;;;;;;9.45;2.38;;;;;;;3.82;100.00;100302.63;2610764;28;20041;-95
2023/12/17 04:37:27;;;;;;;8.13;2.50;;;;;;;3.69;100.00;100303.97;2620057;28;20122;-95
2023/12/17 04:38:45;;;;;;;6.90;2.50;;;;;;;3.84;100.00;100307.84;2615364;28;20421;-94
2023/12/17 04:40:01;;;;;;;6.78;2.53;;;;;;;3.87;100.00;100305.34;2627675;28;20036;-95
2023/12/17 04:41:17;;;;;;;4.13;2.55;;;;;;;3.79;100.00;100308.59;2612866;28;20054;-96
2023/12/17 04:42:33;;;;;;;6.05;2.45;;;;;;;3.82;100.00;100310.38;2619653;28;20047;-95
2023/12/17 04:43:49;;;;;;;7.15;2.47;;;;;;;3.71;100.00;100315.25;2628348;28;20094;-95
2023/12/17 04:45:06;;;;;;;8.23;3.00;;;;;;;3.70;100.00;100310.00;2629080;28;20153;-94
2023/12/17 04:46:22;;;;;;;7.88;2.75;;;;;;;3.62;100.00;100308.09;2626964;28;20040;-94
2023/12/17 04:47:37;;;;;;;6.57;2.63;;;;;;;3.90;100.00;100313.19;2626817;28;20043;-94
2023/12/17 04:48:55;;;;;;;7.28;2.17;;;;;;;3.80;100.00;100310.38;2625960;28;20056;-94
2023/12/17 04:50:11;;;;;;;9.27;2.88;;;;;;;3.63;100.00;100308.94;2616805;28;20056;-93
2023/12/17 04:51:27;;;;;;;6.05;2.20;;;;;;;3.72;100.00;100313.56;2621812;28;20040;-94
2023/12/17 04:52:43;;;;;;;8.85;2.67;;;;;;;3.80;100.00;100315.53;2624223;28;20063;-94
2023/12/17 04:53:59;;;;;;;9.82;2.70;;;;;;;3.73;100.00;100313.59;2625814;28;20369;-94
2023/12/17 04:55:14;;;;;;;8.27;2.97;;;;;;;3.78;100.00;100311.13;2629880;28;20082;-94
2023/12/17 04:56:30;;;;;;;8.82;3.00;;;;;;;3.95;100.00;100322.88;2619982;28;20512;-93
2023/12/17 04:57:46;;;;;;;5.55;2.60;;;;;;;3.71;100.00;100315.25;2622521;28;20048;-94
2023/12/17 04:59:02;;;;;;;7.72;2.75;;;;;;;3.88;100.00;100308.00;2630863;28;20505;-94
2023/12/17 05:00:18;;;;;;;7.78;1.77;;;;;;;3.61;100.00;100310.63;2630115;28;20047;-93
2023/12/17 05:01:33;;;;;;;5.50;2.83;;;;;;;3.67;100.00;100303.06;2637596;28;20046;-94
2023/12/17 05:02:49;;;;;;;7.78;2.97;;;;;;;3.87;100.00;100313.13;2629682;28;20053;-94
2023/12/17 05:04:06;;;;;;;6.75;2.60;;;;;;;3.65;100.00;100308.19;2614384;28;20060;-95
2023/12/17 05:05:23;;;;;;;5.35;2.85;;;;;;;3.76;100.00;100313.66;2629550;28;20047;-93
2023/12/17 05:06:38;;;;;;;10.32;3.30;;;;;;;3.83;100.00;100303.50;2619471;28;20044;-93
2023/12/17 05:07:54;;;;;;;9.38;2.78;;;;;;;3.77;100.00;100307.69;2624104;28;20360;-94
2023/12/17 05:09:10;;;;;;;6.75;3.42;;;;;;;3.86;100.00;100306.19;2628545;28;20083;-93
2023/12/17 05:10:26;;;;;;;8.27;2.97;;;;;;;3.93;100.00;100305.53;2634366;28;20040;-94
2023/12/17 05:11:42;;;;;;;9.43;2.75;;;;;;;3.80;100.00;100300.00;2616965;28;20135;-94
2023/12/17 05:12:57;;;;;;;7.57;3.13;;;;;;;3.75;100.00;100300.69;2620604;28;20044;-94
2023/12/17 05:14:16;;;;;;;4.28;2.28;;;;;;;3.94;100.00;100297.78;2626416;28;20055;-93
2023/12/17 05:15:31;;;;;;;9.30;3.17;;;;;;;3.96;100.00;100303.03;2627411;28;20044;-93
2023/12/17 05:16:47;;;;;;;8.30;2.88;;;;;;;4.02;100.00;100303.19;2627377;28;20465;-94
2023/12/17 05:18:03;;;;;;;8.95;3.25;;;;;;;3.81;100.00;100293.97;2626845;28;20093;-94
2023/12/17 05:19:19;;;;;;;10.32;3.20;;;;;;;3.96;100.00;100297.84;2616459;28;20386;-94
2023/12/17 05:20:34;;;;;;;9.00;3.33;;;;;;;3.93;100.00;100290.84;2620525;28;20036;-94
2023/12/17 05:21:50;;;;;;;9.73;3.55;;;;;;;3.96;100.00;100301.31;2626712;28;20040;-94
2023/12/17 05:23:08;;;;;;;11.75;2.97;;;;;;;3.79;100.00;100302.53;2634694;28;20040;-94
2023/12/17 05:24:23;;;;;;;9.30;3.20;;;;;;;3.85;100.00;100299.25;2626723;28;20040;-94
2023/12/17 05:25:39;;;;;;;9.50;3.28;;;;;;;3.85;100.00;100307.03;2632900;28;20040;-95
2023/12/17 05:26:56;;;;;;;7.00;3.20;;;;;;;3.82;100.00;100305.22;2621032;28;20667;-94
2023/12/17 05:28:11;;;;;;;5.43;2.70;;;;;;;3.79;100.00;100308.59;2625790;28;20093;-94
2023/12/17 05:29:27;;;;;;;6.60;3.25;;;;;;;3.66;100.00;100306.47;2621272;28;20074;-94
2023/12/17 05:30:43;;;;;;;8.65;3.00;;;;;;;3.60;100.00;100312.34;2623666;28;20052;-94
2023/12/17 05:31:58;;;;;;;8.32;3.40;;;;;;;3.55;100.00;100305.28;2632782;28;20139;-93
2023/12/17 05:33:14;;;;;;;10.95;3.20;;;;;;;3.51;100.00;100300.00;2635487;28;20064;-93
2023/12/17 05:34:30;;;;;;;7.55;2.80;;;;;;;3.28;100.00;100306.16;2629080;28;20415;-94
2023/12/17 05:35:46;;;;;;;8.45;3.08;;;;;;;3.37;100.00;100301.28;2626645;28;20132;-94
2023/12/17 05:37:01;;;;;;;12.38;3.30;;;;;;;3.32;100.00;100302.81;2633552;28;20051;-94
2023/12/17 05:38:18;;;;;;;10.05;3.78;;;;;;;3.34;100.00;100307.22;2627364;28;20040;-93
2023/12/17 05:39:34;;;;;;;7.38;3.00;;;;;;;3.10;100.00;100308.19;2633139;28;20510;-94
2023/12/17 05:40:49;;;;;;;8.32;2.70;;;;;;;3.02;100.00;100312.25;2633025;28;20063;-93
2023/12/17 05:42:05;;;;;;;10.75;3.55;;;;;;;3.18;100.00;100311.03;2633886;28;20502;-93
2023/12/17 05:43:21;;;;;;;5.55;2.58;;;;;;;3.17;100.00;100311.88;2627179;28;20518;-94
2023/12/17 05:44:37;;;;;;;7.35;2.97;;;;;;;3.17;100.00;100311.00;2626654;28;20050;-93
2023/12/17 05:45:55;;;;;;;9.20;2.95;;;;;;;3.36;100.00;100315.06;2616705;28;20435;-94
2023/12/17 05:47:11;;;;;;;11.90;3.47;;;;;;;3.29;100.00;100314.00;2620487;28;20040;-93
2023/12/17 05:48:26;;;;;;;11.77;3.60;;;;;;;3.36;100.00;100312.47;2627368;28;20051;-93
2023/12/17 05:49:42;;;;;;;8.45;3.28;;;;;;;3.42;100.00;100312.66;2635879;28;20044;-94
2023/12/17 05:50:58;;;;;;;10.40;3.30;;;;;;;3.43;100.00;100311.81;2628456;28;20051;-94
2023/12/17 05:52:14;;;;;;;7.68;3.53;;;;;;;3.48;100.00;100320.59;2633725;28;20828;-93
2023/12/17 05:53:30;;;;;;;9.48;3.10;;;;;;;3.25;100.00;100317.28;2619628;28;20109;-94
2023/12/17 05:54:45;;;;;;;12.93;3.17;;;;;;;3.30;100.00;100310.56;2626080;28;20522;-93